Time;durP1;ratioP1;P1;durP2;ratioP2;P2;SDS_P1;SDS_P2;PMS_P1;PMS_P2;Temp;Humidity;BMP_temperature;BMP_pressure;BME280_temperature;BME280_humidity;BME280_pressure;Samples;Min_cycle;Max_cycle;Signal;HPM_P1;HPM_P2
2023/01/09 00:00:50;;;;;;;1.03;0.50;;;;;;;4.65;100.00;99286.38;5028724;28;20389;-90
2023/01/09 00:03:16;;;;;;;1.90;0.80;;;;;;;4.73;100.00;99303.69;5029921;28;20022;-89
2023/01/09 00:05:42;;;;;;;1.05;0.70;;;;;;;4.46;100.00;99261.31;5029751;28;20032;-89
2023/01/09 00:08:07;;;;;;;4.43;0.70;;;;;;;4.44;100.00;99260.78;5030058;28;20021;-90
2023/01/09 00:10:33;;;;;;;1.53;0.60;;;;;;;4.46;100.00;99269.28;5030421;28;20028;-90
2023/01/09 00:12:58;;;;;;;1.30;0.52;;;;;;;4.53;100.00;99291.09;5030328;28;20072;-90
2023/01/09 00:15:24;;;;;;;1.03;0.50;;;;;;;4.57;100.00;99317.91;5028556;28;20274;-90
2023/01/09 00:17:49;;;;;;;0.90;0.50;;;;;;;4.21;100.00;99281.28;5028115;28;20361;-90
2023/01/09 00:20:15;;;;;;;1.10;0.63;;;;;;;4.42;100.00;99314.09;5030437;28;20508;-90
2023/01/09 00:22:40;;;;;;;1.40;0.60;;;;;;;4.26;100.00;99299.13;5030324;28;20087;-90
2023/01/09 00:25:06;;;;;;;1.27;0.60;;;;;;;4.07;100.00;99280.94;5029055;28;20029;-90
2023/01/09 00:27:34;;;;;;;2.25;0.52;;;;;;;4.16;100.00;99308.56;5028857;28;20095;-90
2023/01/09 00:29:59;;;;;;;0.80;0.43;;;;;;;3.88;100.00;99273.34;5029895;28;20044;-90
2023/01/09 00:32:26;;;;;;;2.67;0.50;;;;;;;3.93;100.00;99296.44;5016548;28;20033;-90
2023/01/09 00:34:52;;;;;;;5.07;0.68;;;;;;;4.07;100.00;99329.44;5014976;28;20037;-90
2023/01/09 00:37:17;;;;;;;3.28;0.70;;;;;;;3.82;100.00;99292.88;5033996;28;20371;-90
2023/01/09 00:39:42;;;;;;;1.50;0.50;;;;;;;3.86;100.00;99314.38;5033843;28;20112;-90
2023/01/09 00:42:14;;;;;;;1.77;0.80;;;;;;;3.76;100.00;99307.94;5031111;28;20025;-91
2023/01/09 00:44:52;;;;;;;2.20;0.55;;;;;;;3.63;100.00;99289.81;5025123;28;20404;-89
2023/01/09 00:47:32;;;;;;;3.03;0.60;;;;;;;3.70;100.00;99303.63;5033125;28;20044;-89
2023/01/09 00:50:09;;;;;;;0.77;0.40;;;;;;;3.53;100.00;99287.84;5033501;28;20029;-89
2023/01/09 00:52:37;;;;;;;3.23;0.60;;;;;;;3.64;100.00;99315.25;5033314;28;20057;-89
2023/01/09 00:55:56;;;;;;;3.83;0.70;;;;;;;3.69;100.00;99323.22;5031612;28;20439;-90
2023/01/09 01:03:32;;;;;;;2.83;0.90;;;;;;;3.55;100.00;99314.06;5167070;22;20277;-90
2023/01/09 01:08:48;;;;;;;1.50;0.65;;;;;;;3.51;100.00;99308.47;5069215;28;20135;-90
2023/01/09 01:11:13;;;;;;;3.88;0.60;;;;;;;3.58;100.00;99330.25;5068886;28;20028;-90
2023/01/09 01:13:40;;;;;;;4.03;0.70;;;;;;;3.41;100.00;99306.50;5050040;28;20020;-90
2023/01/09 01:16:08;;;;;;;3.20;0.70;;;;;;;3.53;100.00;99318.81;5072672;28;20437;-90
2023/01/09 01:18:33;;;;;;;1.60;0.60;;;;;;;3.57;100.00;99339.25;5054328;28;20645;-90
2023/01/09 01:20:58;;;;;;;1.43;0.53;;;;;;;3.55;100.00;99332.59;5078394;28;20024;-90
2023/01/09 01:23:25;;;;;;;5.53;0.83;;;;;;;3.54;100.00;99331.00;5066288;28;20025;-90
2023/01/09 01:25:50;;;;;;;7.40;0.88;;;;;;;3.25;100.00;99302.09;5063558;28;20542;-90
2023/01/09 01:28:15;;;;;;;3.20;1.00;;;;;;;3.44;100.00;99334.34;5068105;28;20013;-90
2023/01/09 01:30:56;;;;;;;1.57;1.03;;;;;;;3.08;100.00;99305.59;5076014;28;20045;-90
2023/01/09 01:33:21;;;;;;;8.65;1.13;;;;;;;3.11;100.00;99312.22;5088075;28;20012;-89
2023/01/09 01:35:47;;;;;;;3.78;0.80;;;;;;;3.37;100.00;99352.28;5085034;28;20033;-90
2023/01/09 01:38:12;;;;;;;3.73;0.93;;;;;;;3.11;100.00;99322.81;5054395;28;20036;-90
2023/01/09 01:40:39;;;;;;;2.70;1.20;;;;;;;3.10;100.00;99321.22;5074259;28;20035;-89
2023/01/09 01:43:11;;;;;;;3.90;0.77;;;;;;;3.09;100.00;99320.44;5075127;28;20020;-89
2023/01/09 01:45:40;;;;;;;2.22;0.60;;;;;;;3.24;100.00;99358.72;5076828;28;20024;-90
2023/01/09 01:48:10;;;;;;;1.47;0.60;;;;;;;3.23;100.00;99349.19;5078432;28;20107;-89
2023/01/09 01:50:58;;;;;;;2.27;0.50;;;;;;;3.21;100.00;99345.97;5072030;28;20321;-90
2023/01/09 01:53:31;;;;;;;4.10;0.80;;;;;;;3.15;100.00;99355.69;5082061;28;20055;-90
2023/01/09 01:56:09;;;;;;;3.83;0.77;;;;;;;3.11;100.00;99357.22;5075000;28;20031;-90
2023/01/09 01:58:40;;;;;;;2.95;0.80;;;;;;;3.21;100.00;99361.84;5071520;28;20086;-90
2023/01/09 02:01:07;;;;;;;3.45;0.85;;;;;;;3.23;100.00;99359.78;5072594;28;20090;-90
2023/01/09 02:03:33;;;;;;;5.15;0.95;;;;;;;3.14;100.00;99354.88;5073270;28;20028;-90
2023/01/09 02:05:59;;;;;;;4.20;0.73;;;;;;;3.11;100.00;99368.59;5051979;28;20028;-90
2023/01/09 02:08:27;;;;;;;1.95;0.65;;;;;;;2.94;100.00;99342.19;5072426;28;20056;-90
2023/01/09 02:10:52;;;;;;;2.90;0.90;;;;;;;3.07;100.00;99366.69;5073122;28;20021;-90
2023/01/09 02:13:19;;;;;;;4.85;1.13;;;;;;;3.02;100.00;99346.25;5073224;28;20098;-90
2023/01/09 02:15:59;;;;;;;4.63;0.80;;;;;;;3.12;100.00;99356.97;5073853;28;20039;-90
2023/01/09 02:18:53;;;;;;;2.80;0.90;;;;;;;2.90;100.00;99327.03;5072768;28;20032;-90
2023/01/09 02:21:45;;;;;;;5.13;1.20;;;;;;;3.07;100.00;99364.03;5050709;28;21602;-90
2023/01/09 02:24:34;;;;;;;2.40;1.00;;;;;;;3.01;100.00;99357.88;5073365;28;20453;-90
2023/01/09 02:27:16;;;;;;;3.60;0.90;;;;;;;2.94;100.00;99359.88;5072285;28;20028;-90
2023/01/09 02:30:09;;;;;;;4.15;1.10;;;;;;;2.99;100.00;99363.44;5071850;28;20085;-90
2023/01/09 02:32:44;;;;;;;4.07;1.10;;;;;;;2.93;100.00;99353.00;5053199;28;20039;-89
2023/01/09 02:35:12;;;;;;;2.33;1.13;;;;;;;2.97;100.00;99370.00;5070560;28;20024;-90
2023/01/09 02:37:56;;;;;;;3.33;1.00;;;;;;;2.90;100.00;99353.50;5071184;28;20490;-90
2023/01/09 02:40:28;;;;;;;5.00;0.87;;;;;;;2.81;100.00;99356.56;5071235;28;20295;-90
2023/01/09 02:42:57;;;;;;;3.72;1.00;;;;;;;2.64;100.00;99329.31;5069327;28;20040;-90
2023/01/09 02:45:23;;;;;;;3.95;1.20;;;;;;;2.61;100.00;99333.25;5072744;28;20024;-90
2023/01/09 02:47:48;;;;;;;2.83;1.07;;;;;;;2.50;100.00;99308.50;5067520;28;20029;-89
2023/01/09 02:50:24;;;;;;;4.15;1.10;;;;;;;2.66;100.00;99337.81;5072528;28;20387;-90
2023/01/09 02:53:01;;;;;;;4.20;1.20;;;;;;;2.71;100.00;99357.19;5053715;28;20119;-90
2023/01/09 02:55:38;;;;;;;6.13;1.13;;;;;;;2.69;100.00;99353.19;5070733;28;20178;-89
2023/01/09 02:58:16;;;;;;;9.85;1.40;;;;;;;2.79;100.00;99340.13;5071284;28;20691;-89
2023/01/09 03:00:52;;;;;;;4.20;1.50;;;;;;;2.76;100.00;99337.94;5053355;28;20605;-90
2023/01/09 03:03:36;;;;;;;4.27;1.37;;;;;;;2.77;100.00;99339.56;5071119;28;20951;-89
2023/01/09 03:06:10;;;;;;;7.65;1.50;;;;;;;2.73;100.00;99335.81;5071173;28;20059;-90
2023/01/09 03:08:49;;;;;;;10.43;1.77;;;;;;;2.51;100.00;99304.00;5053162;28;20016;-89
2023/01/09 03:11:15;;;;;;;7.38;1.60;;;;;;;2.51;100.00;99301.34;5071078;28;20529;-90
2023/01/09 03:13:49;;;;;;;10.43;1.80;;;;;;;2.77;100.00;99346.69;5070166;28;20020;-90
2023/01/09 03:16:23;;;;;;;10.43;1.70;;;;;;;2.85;100.00;99343.63;5051298;28;20017;-89
2023/01/09 03:18:50;;;;;;;8.35;1.52;;;;;;;2.57;100.00;99309.09;5071615;28;20123;-90
2023/01/09 03:21:16;;;;;;;12.48;1.63;;;;;;;2.77;100.00;99346.69;5081712;28;20445;-89
2023/01/09 03:23:54;;;;;;;13.07;2.13;;;;;;;2.66;100.00;99324.59;5051867;28;20028;-90
2023/01/09 03:26:20;;;;;;;9.63;1.83;;;;;;;2.51;100.00;99318.03;5070751;28;20025;-89
2023/01/09 03:28:46;;;;;;;7.70;1.80;;;;;;;2.55;100.00;99331.56;5052007;28;20078;-89
2023/01/09 03:31:12;;;;;;;4.25;1.58;;;;;;;2.52;100.00;99345.25;5052015;28;20058;-90
2023/01/09 03:33:38;;;;;;;9.80;1.63;;;;;;;2.41;100.00;99320.50;5069858;28;20032;-89
2023/01/09 03:36:04;;;;;;;7.57;2.07;;;;;;;2.48;100.00;99342.31;5070972;28;20021;-90
2023/01/09 03:38:29;;;;;;;8.57;1.95;;;;;;;2.34;100.00;99325.16;5068353;28;20047;-90
2023/01/09 03:40:55;;;;;;;9.47;1.83;;;;;;;2.41;100.00;99342.47;5070167;28;20039;-90
2023/01/09 03:43:20;;;;;;;8.53;1.93;;;;;;;2.40;100.00;99335.56;5069524;28;20671;-89
2023/01/09 03:45:45;;;;;;;6.97;1.77;;;;;;;2.57;100.00;99354.06;5070563;28;20102;-89
2023/01/09 03:48:13;;;;;;;10.95;2.28;;;;;;;2.61;100.00;99353.59;5051477;28;20032;-90
2023/01/09 03:50:44;;;;;;;9.73;1.90;;;;;;;2.49;100.00;99325.41;5065619;28;20044;-90
2023/01/09 03:53:11;;;;;;;11.73;2.27;;;;;;;2.56;100.00;99323.38;5065083;28;20869;-91
2023/01/09 03:55:37;;;;;;;14.38;3.35;;;;;;;2.68;100.00;99333.88;5068629;28;20031;-90
2023/01/09 03:58:03;;;;;;;11.10;2.80;;;;;;;2.68;100.00;99341.00;5069553;28;20450;-90
2023/01/09 04:00:28;;;;;;;14.60;3.10;;;;;;;2.53;100.00;99315.13;5070561;28;20031;-90
2023/01/09 04:02:53;;;;;;;14.30;3.40;;;;;;;2.66;100.00;99328.00;5051802;28;20107;-90
2023/01/09 04:05:19;;;;;;;15.37;3.60;;;;;;;2.62;100.00;99312.88;5069927;28;20334;-90
2023/01/09 04:07:44;;;;;;;9.20;3.33;;;;;;;2.90;100.00;99351.66;5069997;28;20181;-90
2023/01/09 04:10:25;;;;;;;14.70;3.47;;;;;;;2.56;100.00;99306.72;5043958;28;20095;-89
2023/01/09 04:23:58;;;;;;;14.48;2.72;;;;;;;3.17;100.00;99362.34;5423822;22;20053;-89
2023/01/09 04:26:24;;;;;;;10.07;2.57;;;;;;;3.26;100.00;99351.34;5031031;28;20408;-89
2023/01/09 04:28:49;;;;;;;10.00;2.50;;;;;;;3.10;100.00;99311.44;5049080;28;20394;-89
2023/01/09 04:31:14;;;;;;;13.05;2.40;;;;;;;3.27;100.00;99335.19;5036673;28;20484;-90
2023/01/09 04:33:40;;;;;;;14.87;3.13;;;;;;;3.43;100.00;99346.78;5061697;28;20029;-89
2023/01/09 04:36:06;;;;;;;10.93;2.03;;;;;;;3.60;100.00;99367.13;5049485;28;20028;-87
2023/01/09 04:38:32;;;;;;;9.18;2.00;;;;;;;3.60;100.00;99357.31;5049923;28;20052;-88
2023/01/09 04:40:58;;;;;;;7.67;2.20;;;;;;;3.69;100.00;99362.97;5048757;28;20025;-90
2023/01/09 04:43:23;;;;;;;9.57;1.90;;;;;;;3.67;100.00;99356.31;5049661;28;20341;-90
2023/01/09 04:45:49;;;;;;;6.80;1.70;;;;;;;3.69;100.00;99356.88;5044643;28;20037;-90
2023/01/09 04:48:14;;;;;;;11.07;2.00;;;;;;;3.67;100.00;99351.81;5047545;28;20065;-92
2023/01/09 04:50:39;;;;;;;5.85;1.60;;;;;;;3.69;100.00;99347.06;5049983;28;20021;-88
2023/01/09 04:53:05;;;;;;;9.57;1.80;;;;;;;3.74;100.00;99349.78;5050271;28;20017;-88
2023/01/09 04:55:32;;;;;;;10.52;2.13;;;;;;;3.79;100.00;99357.78;5049336;28;20033;-88
2023/01/09 04:57:58;;;;;;;13.27;2.27;;;;;;;3.84;100.00;99362.34;5049924;28;20017;-88
2023/01/09 05:00:23;;;;;;;10.20;2.10;;;;;;;3.72;100.00;99330.69;5031759;28;20298;-88
2023/01/09 05:02:48;;;;;;;6.83;1.50;;;;;;;3.71;100.00;99326.44;5049053;28;20477;-88
2023/01/09 05:05:14;;;;;;;5.40;1.27;;;;;;;3.86;100.00;99346.19;5048798;28;20061;-88
2023/01/09 05:07:39;;;;;;;8.90;1.30;;;;;;;3.85;100.00;99352.53;5049384;28;20098;-88
2023/01/09 05:10:05;;;;;;;10.67;1.40;;;;;;;3.80;100.00;99340.03;5050584;28;20029;-89
2023/01/09 05:12:33;;;;;;;11.20;2.05;;;;;;;3.95;100.00;99350.00;5047617;28;20047;-88
2023/01/09 05:14:58;;;;;;;8.87;1.30;;;;;;;3.93;100.00;99360.84;5032042;28;20465;-88
2023/01/09 05:17:24;;;;;;;8.68;1.30;;;;;;;3.95;100.00;99355.31;5047395;28;20027;-88
2023/01/09 05:19:49;;;;;;;8.93;1.40;;;;;;;3.83;100.00;99336.88;5052681;28;20029;-88
2023/01/09 05:22:14;;;;;;;9.53;1.73;;;;;;;3.99;100.00;99348.47;5053178;28;20044;-87
2023/01/09 05:24:40;;;;;;;7.27;1.40;;;;;;;4.00;100.00;99350.06;5035144;28;20033;-88
2023/01/09 05:27:05;;;;;;;8.88;1.50;;;;;;;4.07;100.00;99342.69;5048421;28;20665;-87
2023/01/09 05:29:32;;;;;;;11.53;1.47;;;;;;;4.06;100.00;99354.34;5044043;28;20382;-89
2023/01/09 05:31:57;;;;;;;11.75;1.65;;;;;;;4.14;100.00;99354.94;5024017;28;20120;-89
2023/01/09 05:34:24;;;;;;;9.43;1.60;;;;;;;4.17;100.00;99351.81;5044857;28;20112;-88
2023/01/09 05:36:49;;;;;;;4.60;1.10;;;;;;;4.19;100.00;99352.34;5050939;28;20508;-88
2023/01/09 05:39:15;;;;;;;8.70;1.30;;;;;;;4.12;100.00;99341.16;5051655;28;20094;-88
2023/01/09 05:41:40;;;;;;;10.63;1.60;;;;;;;4.03;100.00;99327.53;5052334;28;20684;-88
2023/01/09 05:44:06;;;;;;;9.50;1.40;;;;;;;4.14;100.00;99333.75;5053180;28;20083;-88
2023/01/09 05:46:31;;;;;;;7.37;1.33;;;;;;;4.15;100.00;99332.69;5052448;28;20040;-88
2023/01/09 05:48:57;;;;;;;16.52;1.50;;;;;;;4.12;100.00;99325.25;5031324;28;20060;-88
2023/01/09 05:51:22;;;;;;;14.47;1.30;;;;;;;4.20;100.00;99327.44;5051647;28;20086;-88
2023/01/09 05:53:47;;;;;;;6.23;1.07;;;;;;;4.33;100.00;99344.75;5052399;28;20032;-88
2023/01/09 05:56:13;;;;;;;8.35;1.35;;;;;;;4.29;100.00;99336.53;5032484;28;20029;-88
2023/01/09 05:58:38;;;;;;;8.93;1.43;;;;;;;4.25;100.00;99327.47;5034166;28;20034;-88
2023/01/09 06:01:04;;;;;;;9.33;1.50;;;;;;;4.40;100.00;99346.16;5051290;28;20037;-88
2023/01/09 06:03:30;;;;;;;7.88;1.23;;;;;;;4.38;100.00;99342.16;5051529;28;20032;-88
2023/01/09 06:05:55;;;;;;;9.03;1.77;;;;;;;4.35;100.00;99330.22;5050618;28;20035;-88
2023/01/09 06:08:20;;;;;;;8.10;1.30;;;;;;;4.34;100.00;99330.44;5049867;28;20048;-88
2023/01/09 06:10:46;;;;;;;9.90;1.25;;;;;;;4.37;100.00;99319.34;5052210;28;20029;-89
2023/01/09 06:13:12;;;;;;;10.80;1.20;;;;;;;4.30;100.00;99308.94;5052021;28;20029;-89
2023/01/09 06:15:37;;;;;;;3.72;1.10;;;;;;;4.48;100.00;99328.19;5052330;28;20017;-87
2023/01/09 06:18:03;;;;;;;6.80;1.00;;;;;;;4.49;100.00;99335.88;5051878;28;20048;-87
2023/01/09 06:20:29;;;;;;;5.38;1.35;;;;;;;4.47;100.00;99318.63;5047957;28;20108;-87
2023/01/09 06:22:54;;;;;;;8.10;1.53;;;;;;;4.44;100.00;99325.25;5051358;28;20480;-88
2023/01/09 06:25:25;;;;;;;9.70;1.20;;;;;;;4.50;100.00;99334.03;5051773;28;20090;-89
2023/01/09 06:27:51;;;;;;;11.73;1.58;;;;;;;4.38;100.00;99324.38;5047591;28;20052;-88
2023/01/09 06:30:22;;;;;;;9.37;1.20;;;;;;;4.60;100.00;99341.28;5051845;28;20056;-88
2023/01/09 06:32:50;;;;;;;11.35;2.08;;;;;;;4.50;100.00;99324.22;5049986;28;20028;-89
2023/01/09 06:35:21;;;;;;;8.20;1.45;;;;;;;4.64;100.00;99332.53;5047370;28;20036;-92
2023/01/09 06:37:47;;;;;;;11.00;1.80;;;;;;;4.67;100.00;99331.22;5033319;28;20111;-88
2023/01/09 06:40:13;;;;;;;9.80;1.40;;;;;;;4.65;100.00;99326.19;5051766;28;20041;-89
2023/01/09 06:42:42;;;;;;;12.03;1.73;;;;;;;4.74;100.00;99339.00;5051124;28;20154;-88
2023/01/09 06:45:07;;;;;;;7.63;1.17;;;;;;;4.72;100.00;99327.81;5047734;28;20303;-90
2023/01/09 06:47:33;;;;;;;7.30;1.17;;;;;;;4.75;100.00;99336.06;5049415;28;20025;-91
2023/01/09 06:49:58;;;;;;;7.87;1.40;;;;;;;4.78;100.00;99338.22;5050882;28;20207;-91
2023/01/09 06:52:23;;;;;;;10.83;1.43;;;;;;;4.76;100.00;99327.06;5052578;28;20036;-91
2023/01/09 06:54:48;;;;;;;9.03;1.33;;;;;;;4.80;100.00;99341.41;5059810;28;20419;-91
2023/01/09 06:57:15;;;;;;;9.97;1.53;;;;;;;4.81;100.00;99344.84;5065596;28;20432;-90
2023/01/09 06:59:40;;;;;;;12.13;1.50;;;;;;;4.81;100.00;99339.56;5059532;28;20386;-91
2023/01/09 07:02:07;;;;;;;10.55;1.20;;;;;;;4.81;100.00;99343.03;5064581;28;20025;-90
2023/01/09 07:04:32;;;;;;;9.18;1.40;;;;;;;4.87;100.00;99351.81;5060640;28;20102;-91
2023/01/09 07:06:58;;;;;;;12.57;1.70;;;;;;;4.82;100.00;99352.59;5070497;28;20110;-91
2023/01/09 07:09:23;;;;;;;10.30;1.43;;;;;;;4.83;100.00;99342.75;5050790;28;20024;-91
2023/01/09 07:11:48;;;;;;;7.47;1.10;;;;;;;4.90;100.00;99359.25;5033454;28;20052;-91
2023/01/09 07:14:14;;;;;;;10.17;1.33;;;;;;;4.93;100.00;99361.38;5047140;28;20387;-88
2023/01/09 07:16:39;;;;;;;10.43;1.63;;;;;;;4.86;100.00;99355.53;5043681;28;20013;-88
2023/01/09 07:19:04;;;;;;;7.27;2.43;;;;;;;4.96;100.00;99368.84;5057704;28;20044;-87
2023/01/09 07:21:32;;;;;;;8.43;2.03;;;;;;;4.99;100.00;99365.69;5050787;28;20067;-89
2023/01/09 07:24:00;;;;;;;8.77;2.00;;;;;;;4.95;100.00;99375.19;5023063;28;20032;-91
2023/01/09 07:26:27;;;;;;;10.65;1.63;;;;;;;4.85;100.00;99375.94;5030143;28;20033;-91
2023/01/09 07:28:53;;;;;;;10.32;1.65;;;;;;;4.89;100.00;99376.25;5034703;28;20403;-90
2023/01/09 07:31:18;;;;;;;10.07;1.65;;;;;;;4.96;100.00;99384.78;5039736;28;20035;-88
2023/01/09 07:33:44;;;;;;;6.73;1.70;;;;;;;4.91;100.00;99383.94;5046705;28;20112;-88
2023/01/09 07:36:10;;;;;;;10.87;2.07;;;;;;;4.96;100.00;99395.38;5049235;28;20029;-89
2023/01/09 07:38:36;;;;;;;11.23;2.28;;;;;;;4.91;100.00;99381.28;5050245;28;20064;-89
2023/01/09 07:41:01;;;;;;;9.95;2.80;;;;;;;4.96;100.00;99406.00;5048102;28;20561;-89
2023/01/09 07:43:26;;;;;;;10.43;1.90;;;;;;;4.90;100.00;99396.44;5049530;28;20112;-89
2023/01/09 07:45:52;;;;;;;9.10;2.53;;;;;;;4.96;100.00;99419.28;5049484;28;20116;-89
2023/01/09 07:48:17;;;;;;;8.27;2.03;;;;;;;4.90;100.00;99408.88;5050946;28;20035;-90
2023/01/09 07:50:42;;;;;;;10.17;2.20;;;;;;;4.96;100.00;99419.28;5045954;28;20025;-89
2023/01/09 07:53:08;;;;;;;10.97;2.03;;;;;;;4.95;100.00;99416.91;5040864;28;20487;-89
2023/01/09 07:55:34;;;;;;;13.10;1.83;;;;;;;4.90;100.00;99415.00;5053701;28;20075;-93
2023/01/09 07:58:00;;;;;;;9.75;1.85;;;;;;;4.96;100.00;99419.28;5053591;28;20025;-90
2023/01/09 08:00:27;;;;;;;11.73;1.75;;;;;;;4.92;100.00;99426.19;5051075;28;20203;-89
2023/01/09 08:02:52;;;;;;;9.40;2.13;;;;;;;4.87;100.00;99412.84;5051377;28;20029;-91
2023/01/09 08:05:18;;;;;;;11.17;3.47;;;;;;;4.94;100.00;99426.69;5061220;28;20380;-90
2023/01/09 08:07:44;;;;;;;7.57;1.75;;;;;;;4.86;100.00;99419.22;5057198;28;20074;-90
2023/01/09 08:10:12;;;;;;;13.43;2.37;;;;;;;4.93;100.00;99429.63;5051802;28;20075;-90
2023/01/09 08:12:40;;;;;;;5.97;2.00;;;;;;;4.98;100.00;99445.59;5050105;28;20385;-92
2023/01/09 08:15:06;;;;;;;9.82;2.63;;;;;;;5.04;100.00;99436.59;5051257;28;20043;-90
2023/01/09 08:17:32;;;;;;;9.35;2.35;;;;;;;5.01;100.00;99453.06;5051448;28;20104;-91
2023/01/09 08:19:57;;;;;;;10.93;3.00;;;;;;;4.88;100.00;99433.03;5053246;28;20021;-89
2023/01/09 08:22:22;;;;;;;9.97;2.40;;;;;;;5.00;100.00;99460.19;5053836;28;20033;-90
2023/01/09 08:24:47;;;;;;;8.70;2.77;;;;;;;4.96;100.00;99451.13;5035269;28;20060;-88
2023/01/09 08:27:13;;;;;;;9.15;2.40;;;;;;;5.02;100.00;99469.78;5051081;28;20033;-90
2023/01/09 08:29:38;;;;;;;6.70;2.13;;;;;;;5.02;100.00;99467.94;5050298;28;20070;-90
2023/01/09 08:32:04;;;;;;;11.00;1.93;;;;;;;5.09;100.00;99479.13;5049596;28;20116;-90
2023/01/09 08:34:29;;;;;;;7.60;2.40;;;;;;;5.08;100.00;99480.19;5034454;28;20040;-90
2023/01/09 08:36:54;;;;;;;9.52;2.40;;;;;;;5.13;100.00;99487.38;5049679;28;20029;-91
2023/01/09 08:39:20;;;;;;;5.80;1.90;;;;;;;5.09;100.00;99481.00;5048063;28;20052;-91
2023/01/09 08:47:17;;;;;;;5.97;2.08;;;;;;;5.19;100.00;99512.91;5049988;28;20114;-91
2023/01/09 08:49:42;;;;;;;10.10;2.37;;;;;;;5.18;100.00;99511.31;5050595;28;20064;-92
2023/01/09 08:52:07;;;;;;;7.35;1.98;;;;;;;5.18;100.00;99521.94;5041772;28;20036;-91
2023/01/09 08:54:35;;;;;;;7.80;2.03;;;;;;;5.17;100.00;99517.69;5059211;28;20029;-91
2023/01/09 08:57:01;;;;;;;12.55;2.15;;;;;;;5.19;100.00;99528.84;5055568;28;20047;-90
2023/01/09 08:59:26;;;;;;;13.20;2.77;;;;;;;5.21;100.00;99534.72;5054782;28;20025;-90
2023/01/09 09:01:51;;;;;;;8.60;2.03;;;;;;;5.18;100.00;99543.19;5039593;28;20040;-91
2023/01/09 09:04:17;;;;;;;8.23;1.93;;;;;;;5.10;100.00;99538.34;5059155;28;20040;-95
2023/01/09 09:06:42;;;;;;;8.43;2.00;;;;;;;5.14;100.00;99548.22;5056211;28;20028;-92
2023/01/09 09:09:09;;;;;;;5.33;2.13;;;;;;;5.06;100.00;99545.22;5052749;28;20279;-92
2023/01/09 09:11:35;;;;;;;8.20;2.25;;;;;;;5.08;100.00;99546.56;5045810;28;20040;-92
2023/01/09 09:15:11;;;;;;;10.97;2.10;;;;;;;5.13;100.00;99559.06;5033679;28;20021;-92
2023/01/09 09:16:46;;;;;;;5.15;2.22;;;;;;;4.98;100.00;99544.59;5052104;28;20075;-93
2023/01/09 09:19:11;;;;;;;6.43;2.20;;;;;;;5.10;100.00;99559.59;5063842;28;20029;-93
2023/01/09 09:21:37;;;;;;;8.37;2.10;;;;;;;5.08;100.00;99562.50;5045374;28;20052;-91
2023/01/09 09:24:02;;;;;;;8.23;3.00;;;;;;;4.99;100.00;99543.56;5047303;28;20048;-93
2023/01/09 09:26:28;;;;;;;11.53;2.80;;;;;;;4.99;100.00;99545.44;5069491;28;20041;-93
2023/01/09 09:28:56;;;;;;;7.45;2.33;;;;;;;5.13;100.00;99567.03;5079105;28;20021;-94
2023/01/09 09:31:21;;;;;;;8.75;2.17;;;;;;;5.14;100.00;99576.59;5080944;28;20021;-94
2023/01/09 09:33:47;;;;;;;11.00;2.17;;;;;;;5.18;100.00;99579.59;5083476;28;20025;-93
2023/01/09 09:36:12;;;;;;;10.27;2.23;;;;;;;5.18;100.00;99585.69;5086094;28;20099;-95
2023/01/09 09:38:46;;;;;;;5.87;2.13;;;;;;;5.17;100.00;99584.06;5083389;28;20071;-95
2023/01/09 09:44:52;;;;;;;7.18;2.50;;;;;;;5.31;100.00;99625.09;5074187;28;20051;-94
2023/01/09 09:47:20;;;;;;;4.50;2.42;;;;;;;5.31;100.00;99629.63;5077783;28;20055;-94
2023/01/09 09:50:12;;;;;;;9.88;2.60;;;;;;;5.33;100.00;99642.66;5074641;28;20033;-94
2023/01/09 09:53:15;;;;;;;10.05;2.55;;;;;;;5.23;100.00;99638.84;5063333;28;20119;-94
2023/01/09 09:55:41;;;;;;;9.20;2.63;;;;;;;5.17;100.00;99623.13;5040626;28;20025;-94
2023/01/09 09:58:17;;;;;;;13.17;3.03;;;;;;;5.42;100.00;99662.41;5055529;28;20283;-94
2023/01/09 10:00:42;;;;;;;9.25;3.20;;;;;;;5.32;100.00;99647.16;5054777;28;20036;-93
2023/01/09 10:03:21;;;;;;;12.15;2.72;;;;;;;5.44;100.00;99663.75;5036637;28;20017;-92
2023/01/09 10:05:50;;;;;;;6.03;2.93;;;;;;;5.53;100.00;99666.75;5054422;28;20033;-92
2023/01/09 10:08:24;;;;;;;12.77;3.93;;;;;;;5.48;100.00;99665.91;5054270;28;20875;-92
2023/01/09 10:10:53;;;;;;;6.47;2.67;;;;;;;5.19;100.00;99650.25;5053521;28;20040;-92
2023/01/09 10:16:25;;;;;;;10.32;3.10;;;;;;;5.18;100.00;99691.13;5055430;28;20047;-92
2023/01/09 10:19:12;;;;;;;10.10;3.22;;;;;;;5.13;100.00;99689.19;5037555;28;20025;-92
2023/01/09 10:21:56;;;;;;;8.27;3.45;;;;;;;5.14;100.00;99688.16;5056652;28;20032;-91
2023/01/09 10:24:57;;;;;;;11.57;3.83;;;;;;;5.19;100.00;99700.69;5057872;28;20171;-92
2023/01/09 10:27:26;;;;;;;13.20;3.87;;;;;;;5.30;100.00;99699.75;5070002;28;20048;-92
2023/01/09 10:30:26;;;;;;;14.60;4.45;;;;;;;5.36;100.00;99708.56;5072543;28;20040;-92
2023/01/09 10:33:18;;;;;;;14.60;4.15;;;;;;;5.21;100.00;99683.44;5034772;28;20029;-92
2023/01/09 10:36:03;;;;;;;13.80;4.40;;;;;;;5.34;100.00;99697.38;5054493;28;20033;-92
2023/01/09 10:38:36;;;;;;;11.93;4.22;;;;;;;5.58;100.00;99719.13;5054159;28;20078;-91
2023/01/09 10:41:10;;;;;;;11.25;4.07;;;;;;;5.66;100.00;99723.22;5053907;28;20059;-92
2023/01/09 10:43:45;;;;;;;8.90;3.80;;;;;;;5.47;100.00;99689.03;5052806;28;20052;-92
2023/01/09 10:46:30;;;;;;;14.37;3.87;;;;;;;5.72;100.00;99716.88;5035024;28;20784;-91
2023/01/09 10:48:59;;;;;;;10.75;4.93;;;;;;;5.77;100.00;99706.28;5052574;28;20483;-91
2023/01/09 10:51:45;;;;;;;9.50;3.35;;;;;;;5.93;100.00;99717.88;5052323;28;20423;-92
2023/01/09 10:54:17;;;;;;;8.38;3.40;;;;;;;5.74;100.00;99704.94;5052837;28;20512;-92
2023/01/09 10:57:09;;;;;;;8.90;3.50;;;;;;;5.86;100.00;99733.22;5052222;28;20037;-92
2023/01/09 10:59:34;;;;;;;7.30;3.20;;;;;;;5.93;100.00;99728.50;5050789;28;20036;-90
2023/01/09 11:07:24;;;;;;;12.70;4.47;;;;;;;6.44;100.00;99741.38;5939032;22;20087;-91
2023/01/09 11:10:00;;;;;;;8.43;3.77;;;;;;;6.46;100.00;99725.16;5051885;28;20021;-92
2023/01/09 11:12:30;;;;;;;7.18;3.42;;;;;;;6.54;100.00;99750.50;5051533;28;20029;-91
2023/01/09 11:15:26;;;;;;;15.70;3.80;;;;;;;6.54;100.00;99740.63;5050033;28;20040;-92
2023/01/09 11:17:51;;;;;;;15.40;4.22;;;;;;;6.59;100.00;99750.50;5049405;28;20055;-91
2023/01/09 11:20:34;;;;;;;9.87;3.77;;;;;;;6.52;100.00;99726.78;5051546;28;20033;-91
2023/01/09 11:22:59;;;;;;;14.55;4.22;;;;;;;6.71;100.00;99748.47;5046556;28;20051;-91
2023/01/09 11:25:28;;;;;;;9.53;3.70;;;;;;;6.54;100.00;99734.53;5051267;28;20476;-91
2023/01/09 11:28:03;;;;;;;17.50;4.65;;;;;;;6.43;100.00;99757.63;5051379;28;20035;-91
2023/01/09 11:30:49;;;;;;;9.95;4.10;;;;;;;6.28;100.00;99748.47;5048978;28;20033;-91
2023/01/09 11:33:24;;;;;;;11.48;4.50;;;;;;;6.18;100.00;99756.38;5059329;28;20037;-92
2023/01/09 11:36:12;;;;;;;7.53;3.80;;;;;;;6.11;100.00;99761.91;5071615;28;20029;-91
2023/01/09 11:38:55;;;;;;;7.83;3.83;;;;;;;5.96;100.00;99767.84;5070517;28;20285;-91
2023/01/09 11:41:37;;;;;;;10.18;4.18;;;;;;;5.98;100.00;99768.41;5072516;28;20025;-90
2023/01/09 11:44:04;;;;;;;10.00;4.82;;;;;;;5.82;100.00;99737.44;5058067;28;20086;-92
2023/01/09 11:46:33;;;;;;;12.07;4.55;;;;;;;6.18;100.00;99774.97;5049517;28;20044;-91
2023/01/09 11:49:01;;;;;;;12.43;4.80;;;;;;;6.15;100.00;99765.66;5050961;28;20052;-91
2023/01/09 11:51:35;;;;;;;9.87;4.40;;;;;;;6.25;100.00;99772.09;5050921;28;20407;-91
2023/01/09 11:54:34;;;;;;;14.10;4.60;;;;;;;6.51;100.00;99789.06;5051377;28;20311;-91
2023/01/09 11:56:59;;;;;;;13.93;4.15;;;;;;;6.36;100.00;99763.94;5050935;28;20021;-92
2023/01/09 11:59:27;;;;;;;8.30;4.27;;;;;;;6.58;100.00;99783.50;5050708;28;20090;-91
2023/01/09 12:02:12;;;;;;;16.08;5.00;;;;;;;6.51;100.00;99789.06;5032529;28;20036;-92
2023/01/09 12:04:57;;;;;;;10.50;4.25;;;;;;;6.32;100.00;99780.69;5050774;28;20021;-91
2023/01/09 12:07:49;;;;;;;12.50;3.65;;;;;;;6.09;100.00;99781.84;5050793;28;20562;-91
2023/01/09 12:10:54;;;;;;;9.38;4.28;;;;;;;5.82;100.00;99770.16;5050488;28;20454;-94
2023/01/09 12:13:57;;;;;;;8.68;4.38;;;;;;;6.17;100.00;99790.16;5048092;28;20036;-93
2023/01/09 12:16:32;;;;;;;9.20;4.27;;;;;;;6.35;100.00;99786.28;5051445;28;20411;-93
2023/01/09 12:19:15;;;;;;;15.55;5.15;;;;;;;6.14;100.00;99748.09;5048944;28;20411;-92
2023/01/09 12:22:10;;;;;;;12.82;4.20;;;;;;;6.27;100.00;99770.81;5052161;28;20040;-91